createdAt,value
2023-04-27T00:01:00.386Z,98006.38
2023-04-27T00:03:27.392Z,98003.34
2023-04-27T00:05:54.220Z,98005.91
2023-04-27T00:08:20.830Z,98001.44
2023-04-27T00:10:47.277Z,97994.34
2023-04-27T00:13:13.710Z,98000.13
2023-04-27T00:15:40.935Z,98001.75
2023-04-27T00:18:07.475Z,98001.03
2023-04-27T00:20:34.157Z,98001.03
2023-04-27T00:23:00.659Z,97998.66
2023-04-27T00:25:27.164Z,97998.47
2023-04-27T00:27:53.670Z,97997.69
2023-04-27T00:30:20.231Z,98001.41
2023-04-27T00:32:46.752Z,97996.16
2023-04-27T00:35:13.337Z,97991.78
2023-04-27T00:37:39.834Z,97992.16
2023-04-27T00:40:07.905Z,97989.00
2023-04-27T00:42:34.982Z,97994.34
2023-04-27T00:45:02.095Z,97992.25
2023-04-27T00:47:29.772Z,97999.31
2023-04-27T00:49:56.244Z,97994.03
2023-04-27T00:52:22.774Z,97998.47
2023-04-27T00:54:50.678Z,97996.34
2023-04-27T00:57:17.236Z,97995.38
2023-04-27T00:59:43.732Z,97984.56
2023-04-27T01:02:11.133Z,97995.44
2023-04-27T01:04:37.787Z,97991.19
2023-04-27T01:07:04.443Z,97994.09
2023-04-27T01:09:30.992Z,97993.13
2023-04-27T01:11:58.365Z,97997.31
2023-04-27T01:14:24.895Z,97991.78
2023-04-27T01:16:52.013Z,97987.13
2023-04-27T01:19:18.481Z,97985.47
2023-04-27T01:21:44.949Z,97981.38
2023-04-27T01:24:11.442Z,97974.63
2023-04-27T01:26:37.927Z,97970.25
2023-04-27T01:29:04.507Z,97968.84
2023-04-27T01:31:31.259Z,97974.63
2023-04-27T01:33:57.740Z,97970.94
2023-04-27T01:36:24.266Z,97978.41
2023-04-27T01:38:51.522Z,97977.25
2023-04-27T01:41:18.021Z,97974.81
2023-04-27T01:43:44.547Z,97975.91
2023-04-27T01:46:12.260Z,97971.41
2023-04-27T01:48:39.191Z,97979.69
2023-04-27T01:51:05.833Z,97982.25
2023-04-27T01:53:32.297Z,97989.84
2023-04-27T01:56:01.681Z,97987.28
2023-04-27T01:58:28.298Z,97986.31
2023-04-27T02:00:54.775Z,97993.38
2023-04-27T02:03:21.684Z,97988.03
2023-04-27T02:05:48.475Z,97995.63
2023-04-27T02:08:14.942Z,97991.28
2023-04-27T02:10:41.412Z,98003.22
2023-04-27T02:13:08.165Z,97995.19
2023-04-27T02:15:35.405Z,97996.16
2023-04-27T02:18:03.300Z,98002.19
2023-04-27T02:20:31.146Z,98002.72
2023-04-27T02:22:57.657Z,97997.69
2023-04-27T02:25:24.164Z,97995.13
2023-04-27T02:27:50.722Z,98002.25
2023-04-27T02:30:17.700Z,98006.84
2023-04-27T02:32:44.888Z,98004.00
2023-04-27T02:35:11.546Z,98001.28
2023-04-27T02:37:38.093Z,97997.69
2023-04-27T02:40:07.744Z,98002.19
2023-04-27T02:42:34.257Z,97993.38
2023-04-27T02:45:00.899Z,97998.97
2023-04-27T02:47:27.378Z,98000.16
2023-04-27T02:49:53.962Z,97998.88
2023-04-27T02:52:20.513Z,98004.00
2023-04-27T02:54:47.016Z,98009.31
2023-04-27T02:57:13.524Z,98009.31
2023-04-27T02:59:40.016Z,98001.75
2023-04-27T03:02:06.541Z,98005.28
2023-04-27T03:04:33.057Z,98006.47
2023-04-27T03:06:59.548Z,98002.78
2023-04-27T03:09:26.070Z,98004.91
2023-04-27T03:11:52.874Z,98002.19
2023-04-27T03:14:19.344Z,98002.69
2023-04-27T03:16:45.915Z,98010.38
2023-04-27T03:19:12.713Z,98012.53
2023-04-27T03:21:39.411Z,98021.41
2023-04-27T03:24:06.117Z,98013.38
2023-04-27T03:26:32.610Z,98013.72
2023-04-27T03:28:59.080Z,98015.13
2023-04-27T03:31:25.626Z,98012.97
2023-04-27T03:33:52.192Z,98020.16
2023-04-27T03:36:18.682Z,98022.06
2023-04-27T03:38:45.398Z,98027.59
2023-04-27T03:41:12.449Z,98028.16
2023-04-27T03:43:38.984Z,98036.53
2023-04-27T03:46:05.494Z,98040.09
2023-04-27T03:48:32.059Z,98029.09
2023-04-27T03:50:58.523Z,98037.25
2023-04-27T03:53:25.060Z,98038.69
2023-04-27T03:55:51.592Z,98045.88
2023-04-27T03:58:18.234Z,98040.63
2023-04-27T04:00:45.027Z,98054.88
2023-04-27T04:03:11.874Z,98050.69
2023-04-27T04:05:38.459Z,98052.13
2023-04-27T04:08:04.974Z,98057.03
2023-04-27T04:10:31.585Z,98059.28
2023-04-27T04:12:58.081Z,98067.22
2023-04-27T04:15:24.574Z,98067.31
2023-04-27T04:17:51.193Z,98064.81
2023-04-27T04:20:17.769Z,98068.63
2023-04-27T04:22:44.325Z,98065.91
2023-04-27T04:25:10.826Z,98061.69
2023-04-27T04:27:37.613Z,98072.22
2023-04-27T04:30:06.097Z,98078.59
2023-04-27T04:32:33.737Z,98070.56
2023-04-27T04:35:01.520Z,98077.50
2023-04-27T04:37:28.239Z,98082.97
2023-04-27T04:39:54.765Z,98081.31
2023-04-27T04:42:21.416Z,98088.72
2023-04-27T04:44:47.885Z,98089.94
2023-04-27T04:47:14.441Z,98092.09
2023-04-27T04:49:40.998Z,98094.84
2023-04-27T04:52:07.499Z,98086.19
2023-04-27T04:54:33.990Z,98086.81
2023-04-27T04:57:02.228Z,98089.06
2023-04-27T04:59:30.898Z,98089.69
2023-04-27T05:01:58.624Z,98089.19
2023-04-27T05:04:25.457Z,98088.69
2023-04-27T05:06:52.924Z,98076.34
2023-04-27T05:09:19.453Z,98083.41
2023-04-27T05:11:45.907Z,98084.84
2023-04-27T05:14:12.389Z,98092.28
2023-04-27T05:16:39.013Z,98087.25
2023-04-27T05:19:06.006Z,98089.38
2023-04-27T05:21:33.530Z,98088.00
2023-04-27T05:24:00.197Z,98081.03
2023-04-27T05:26:26.688Z,98086.94
2023-04-27T05:28:53.157Z,98089.66
2023-04-27T05:31:19.737Z,98098.13
2023-04-27T05:33:46.326Z,98092.13
2023-04-27T05:36:12.797Z,98089.03
2023-04-27T05:38:40.622Z,98093.09
2023-04-27T05:41:07.516Z,98093.91
2023-04-27T05:43:35.092Z,98094.03
2023-04-27T05:46:01.782Z,98098.97
2023-04-27T05:48:28.363Z,98100.47
2023-04-27T05:51:04.035Z,98100.06
2023-04-27T05:53:30.787Z,98103.78
2023-04-27T05:55:59.204Z,98103.78
2023-04-27T05:58:25.728Z,98104.44
2023-04-27T06:00:53.639Z,98099.44
2023-04-27T06:03:20.292Z,98093.09
2023-04-27T06:05:46.845Z,98101.44
2023-04-27T06:08:13.471Z,98099.50
2023-04-27T06:10:40.097Z,98104.66
2023-04-27T06:13:06.856Z,98103.13
2023-04-27T06:15:33.383Z,98104.84
2023-04-27T06:17:59.969Z,98104.13
2023-04-27T06:20:27.094Z,98110.53
2023-04-27T06:22:53.608Z,98120.69
2023-04-27T06:25:20.123Z,98109.25
2023-04-27T06:27:47.391Z,98110.03
2023-04-27T06:30:14.006Z,98107.13
2023-04-27T06:32:40.692Z,98109.78
2023-04-27T06:35:07.470Z,98106.47
2023-04-27T06:37:34.057Z,98113.13
2023-04-27T06:40:00.577Z,98124.88
2023-04-27T06:42:27.373Z,98118.78
2023-04-27T06:44:55.826Z,98119.03
2023-04-27T06:47:22.688Z,98116.19
2023-04-27T06:49:49.873Z,98118.53
2023-04-27T06:52:16.600Z,98122.66
2023-04-27T06:54:43.106Z,98114.94
2023-04-27T06:57:09.620Z,98114.38
2023-04-27T06:59:36.124Z,98113.66
2023-04-27T07:02:03.227Z,98121.06
2023-04-27T07:04:30.259Z,98106.50
2023-04-27T07:06:57.274Z,98121.38
2023-04-27T07:09:27.480Z,98125.72
2023-04-27T07:11:55.183Z,98121.19
2023-04-27T07:14:22.059Z,98122.00
2023-04-27T07:16:49.911Z,98113.78
2023-04-27T07:19:16.751Z,98117.69
2023-04-27T07:21:43.371Z,98121.47
2023-04-27T07:24:10.133Z,98120.34
2023-04-27T07:26:37.510Z,98117.34
2023-04-27T07:29:11.130Z,98117.56
2023-04-27T07:31:46.176Z,98117.22
2023-04-27T07:34:12.888Z,98119.38
2023-04-27T07:36:40.093Z,98118.38
2023-04-27T07:39:08.047Z,98124.69
2023-04-27T07:41:35.449Z,98118.34
2023-04-27T07:44:02.841Z,98111.97
2023-04-27T07:46:31.665Z,98107.25
2023-04-27T07:48:59.729Z,98106.19
2023-04-27T07:51:28.559Z,98102.13
2023-04-27T07:53:55.702Z,98112.13
2023-04-27T07:56:22.199Z,98113.59
2023-04-27T07:58:48.695Z,98113.78
2023-04-27T08:01:15.267Z,98116.97
2023-04-27T08:03:42.063Z,98112.94
2023-04-27T08:06:09.140Z,98111.72
2023-04-27T08:08:36.286Z,98110.09
2023-04-27T08:11:03.035Z,98114.78
2023-04-27T08:13:29.497Z,98119.91
2023-04-27T08:15:58.545Z,98114.00
2023-04-27T08:18:25.988Z,98115.78
2023-04-27T08:20:52.665Z,98115.69
2023-04-27T08:23:19.265Z,98116.84
2023-04-27T08:25:45.763Z,98120.41
2023-04-27T08:28:13.144Z,98112.16
2023-04-27T08:30:39.639Z,98118.13
2023-04-27T08:33:06.215Z,98116.22
2023-04-27T08:35:32.753Z,98117.16
2023-04-27T08:37:59.269Z,98117.38
2023-04-27T08:40:25.884Z,98121.53
2023-04-27T08:42:57.386Z,98110.19
2023-04-27T08:45:24.784Z,98119.59
2023-04-27T08:47:51.446Z,98114.72
2023-04-27T08:50:18.190Z,98116.69
2023-04-27T08:52:48.116Z,98114.69
2023-04-27T08:55:16.701Z,98123.66
2023-04-27T08:57:54.051Z,98120.81
2023-04-27T09:00:20.933Z,98112.59
2023-04-27T09:02:48.097Z,98118.63
2023-04-27T09:05:22.356Z,98121.88
2023-04-27T09:08:05.285Z,98114.13
2023-04-27T09:10:43.062Z,98122.22
2023-04-27T09:13:09.505Z,98124.38
2023-04-27T09:15:43.104Z,98111.00
2023-04-27T09:18:21.159Z,98115.22
2023-04-27T09:20:51.918Z,98112.47
2023-04-27T09:23:31.357Z,98123.31
2023-04-27T09:25:59.268Z,98116.16
2023-04-27T09:28:27.661Z,98106.78
2023-04-27T09:30:58.409Z,98104.78
2023-04-27T09:33:26.089Z,98107.75
2023-04-27T09:35:53.090Z,98103.53
2023-04-27T09:38:20.147Z,98105.81
2023-04-27T09:40:46.977Z,98104.09
2023-04-27T09:43:13.520Z,98099.13
2023-04-27T09:45:40.123Z,98096.72
2023-04-27T09:48:06.692Z,98092.41
2023-04-27T09:50:39.624Z,98087.50
2023-04-27T09:53:07.731Z,98096.34
2023-04-27T09:55:38.112Z,98093.53
2023-04-27T09:58:35.876Z,98090.25
2023-04-27T10:01:27.695Z,98093.16
2023-04-27T10:04:19.145Z,98087.91
2023-04-27T10:07:01.234Z,98085.34
2023-04-27T10:09:31.688Z,98071.66
2023-04-27T10:12:22.631Z,98078.69
2023-04-27T10:14:55.888Z,98078.66
2023-04-27T10:17:36.315Z,98070.38
2023-04-27T10:20:07.515Z,98075.97
2023-04-27T10:22:39.166Z,98065.84
2023-04-27T10:25:24.394Z,98071.03
2023-04-27T10:27:53.803Z,98070.00
2023-04-27T10:30:21.075Z,98062.16
2023-04-27T10:32:58.554Z,98065.56
2023-04-27T10:35:44.346Z,98062.63
2023-04-27T10:38:18.838Z,98049.81
2023-04-27T10:40:46.464Z,98052.50
2023-04-27T10:43:17.422Z,98048.75
2023-04-27T10:45:44.277Z,98044.41
2023-04-27T10:48:15.570Z,98041.28
2023-04-27T10:50:42.603Z,98037.19
2023-04-27T10:53:09.191Z,98038.47
2023-04-27T10:55:36.150Z,98041.47
2023-04-27T10:58:03.778Z,98036.59
2023-04-27T11:00:36.693Z,98037.63
2023-04-27T11:03:14.234Z,98039.63
2023-04-27T11:05:43.084Z,98029.78
2023-04-27T11:08:11.312Z,98039.59
2023-04-27T11:10:43.257Z,98026.41
2023-04-27T11:13:23.002Z,98033.91
2023-04-27T11:15:54.376Z,98032.69
2023-04-27T11:18:21.895Z,98035.78
2023-04-27T11:20:52.992Z,98043.00
2023-04-27T11:23:29.965Z,98038.47
2023-04-27T11:25:56.690Z,98037.66
2023-04-27T11:28:24.261Z,98039.53
2023-04-27T11:31:00.635Z,98035.97
2023-04-27T11:33:27.527Z,98024.94
2023-04-27T11:35:54.068Z,98029.09
2023-04-27T11:38:22.199Z,98033.75
2023-04-27T11:41:07.596Z,98035.19
2023-04-27T11:43:34.329Z,98028.94
2023-04-27T11:46:04.567Z,98032.47
2023-04-27T11:48:31.181Z,98027.50
2023-04-27T11:50:59.146Z,98030.88
2023-04-27T11:53:38.917Z,98018.28
2023-04-27T11:56:10.632Z,98037.88
2023-04-27T11:58:38.367Z,98034.97
2023-04-27T12:01:05.105Z,98033.09
2023-04-27T12:03:31.993Z,98021.75
2023-04-27T12:06:11.657Z,98022.84
2023-04-27T12:08:45.145Z,98015.28
2023-04-27T12:11:11.602Z,98031.53
2023-04-27T12:13:38.098Z,98031.41
2023-04-27T12:16:05.161Z,98020.38
2023-04-27T12:18:31.803Z,98018.31
2023-04-27T12:21:02.811Z,98023.66
2023-04-27T12:23:29.880Z,98017.06
2023-04-27T12:25:56.489Z,98021.56
2023-04-27T12:28:23.359Z,98009.88
2023-04-27T12:30:50.082Z,98012.75
2023-04-27T12:33:17.223Z,98004.88
2023-04-27T12:35:43.745Z,98007.38
2023-04-27T12:38:10.236Z,98001.19
2023-04-27T12:40:36.762Z,98003.81
2023-04-27T12:43:03.317Z,98009.19
2023-04-27T12:45:30.198Z,97994.72
2023-04-27T12:48:03.410Z,98002.81
2023-04-27T12:50:33.715Z,98003.59
2023-04-27T12:53:00.390Z,98009.97
2023-04-27T12:55:33.701Z,98005.84
2023-04-27T12:58:02.410Z,97998.81
2023-04-27T13:00:29.886Z,98001.50
2023-04-27T13:02:56.822Z,98007.13
2023-04-27T13:05:23.556Z,98011.19
2023-04-27T13:07:50.151Z,98003.78
2023-04-27T13:10:16.695Z,98010.28
2023-04-27T13:12:43.285Z,97998.44
2023-04-27T13:15:10.222Z,97996.38
2023-04-27T13:17:36.954Z,97991.44
2023-04-27T13:20:03.972Z,97990.19
2023-04-27T13:22:30.539Z,97986.56
2023-04-27T13:24:57.016Z,97995.88
2023-04-27T13:27:25.267Z,97994.38
2023-04-27T13:29:51.811Z,97991.00
2023-04-27T13:32:18.593Z,97987.25
2023-04-27T13:34:45.245Z,97988.09
2023-04-27T13:37:11.722Z,97989.16
2023-04-27T13:39:38.343Z,97987.56
2023-04-27T13:42:05.164Z,97988.88
2023-04-27T13:44:31.869Z,97997.66
2023-04-27T13:46:58.564Z,97988.28
2023-04-27T13:49:25.960Z,97981.69
2023-04-27T13:51:52.519Z,97985.28
2023-04-27T13:54:19.921Z,97977.81
2023-04-27T13:56:46.613Z,97974.25
2023-04-27T13:59:13.313Z,97973.53
2023-04-27T14:01:40.083Z,97970.44
2023-04-27T14:04:08.231Z,97971.41
2023-04-27T14:06:35.062Z,97976.94
2023-04-27T14:09:01.540Z,97969.72
2023-04-27T14:11:28.082Z,97958.06
2023-04-27T14:13:54.566Z,97955.47
2023-04-27T14:16:21.232Z,97957.34
2023-04-27T14:18:47.714Z,97956.41
2023-04-27T14:21:14.338Z,97952.84
2023-04-27T14:23:40.916Z,97948.44
2023-04-27T14:26:07.536Z,97947.63
2023-04-27T14:28:34.558Z,97946.63
2023-04-27T14:31:01.074Z,97951.22
2023-04-27T14:33:27.589Z,97939.66
2023-04-27T14:35:54.215Z,97940.53
2023-04-27T14:38:20.725Z,97940.50
2023-04-27T14:40:47.536Z,97932.75
2023-04-27T14:43:14.109Z,97928.88
2023-04-27T14:45:51.094Z,97940.72
2023-04-27T14:48:19.442Z,97943.94
2023-04-27T14:50:46.188Z,97939.69
2023-04-27T14:53:12.682Z,97941.81
2023-04-27T14:55:41.181Z,97941.91
2023-04-27T14:58:07.735Z,97941.97
2023-04-27T15:00:34.428Z,97940.72
2023-04-27T15:03:01.417Z,97946.63
2023-04-27T15:05:28.105Z,97945.41
2023-04-27T15:07:54.574Z,97949.56
2023-04-27T15:10:21.279Z,97950.81
2023-04-27T15:12:47.826Z,97939.06
2023-04-27T15:15:14.286Z,97937.44
2023-04-27T15:17:41.597Z,97947.03
2023-04-27T15:20:08.499Z,97945.94
2023-04-27T15:22:34.982Z,97944.66
2023-04-27T15:25:01.458Z,97946.31
2023-04-27T15:27:27.963Z,97947.06
2023-04-27T15:29:54.818Z,97947.16
2023-04-27T15:32:23.276Z,97950.88
2023-04-27T15:34:49.961Z,97954.34
2023-04-27T15:37:16.475Z,97942.41
2023-04-27T15:39:43.000Z,97952.22
2023-04-27T15:42:09.484Z,97953.06
2023-04-27T15:44:36.546Z,97945.53
2023-04-27T15:47:03.738Z,97941.97
2023-04-27T15:49:30.400Z,97929.31
2023-04-27T15:51:56.884Z,97931.84
2023-04-27T15:54:23.457Z,97923.50
2023-04-27T15:56:49.940Z,97933.47
2023-04-27T15:59:16.708Z,97927.69
2023-04-27T16:01:43.663Z,97921.09
2023-04-27T16:04:10.273Z,97924.41
2023-04-27T16:06:37.114Z,97926.06
2023-04-27T16:09:04.020Z,97923.31
2023-04-27T16:11:31.397Z,97919.78
2023-04-27T16:13:58.048Z,97922.72
2023-04-27T16:16:24.648Z,97915.28
2023-04-27T16:18:51.179Z,97922.44
2023-04-27T16:21:17.655Z,97919.25
2023-04-27T16:23:44.300Z,97915.19
2023-04-27T16:26:11.123Z,97912.28
2023-04-27T16:28:38.070Z,97913.56
2023-04-27T16:31:04.659Z,97920.13
2023-04-27T16:33:31.363Z,97911.34
2023-04-27T16:35:57.948Z,97910.16
2023-04-27T16:38:24.455Z,97906.84
2023-04-27T16:40:52.532Z,97910.72
2023-04-27T16:43:19.235Z,97908.56
2023-04-27T16:45:45.945Z,97912.00
2023-04-27T16:48:12.571Z,97906.78
2023-04-27T16:50:39.155Z,97916.63
2023-04-27T16:53:10.893Z,97906.94
2023-04-27T16:55:37.428Z,97901.59
2023-04-27T16:58:04.006Z,97909.00
2023-04-27T17:00:30.566Z,97904.91
2023-04-27T17:02:57.080Z,97905.28
2023-04-27T17:05:23.678Z,97911.47
2023-04-27T17:07:50.212Z,97903.03
2023-04-27T17:10:17.395Z,97907.47
2023-04-27T17:12:43.835Z,97914.88
2023-04-27T17:15:10.769Z,97901.22
2023-04-27T17:17:37.375Z,97910.97
2023-04-27T17:20:06.311Z,97904.19
2023-04-27T17:22:33.077Z,97902.09
2023-04-27T17:24:59.598Z,97901.53
2023-04-27T17:27:26.338Z,97896.16
2023-04-27T17:29:53.889Z,97900.25
2023-04-27T17:32:20.557Z,97909.09
2023-04-27T17:34:47.195Z,97904.09
2023-04-27T17:37:14.869Z,97909.88
2023-04-27T17:39:41.449Z,97912.22
2023-04-27T17:42:12.115Z,97906.06
2023-04-27T17:44:41.125Z,97905.69
2023-04-27T17:47:07.914Z,97899.22
2023-04-27T17:49:34.413Z,97900.72
2023-04-27T17:52:01.110Z,97903.78
2023-04-27T17:54:29.948Z,97913.72
2023-04-27T17:56:56.749Z,97906.91
2023-04-27T17:59:23.888Z,97907.88
2023-04-27T18:01:50.480Z,97906.69
2023-04-27T18:04:17.129Z,97907.16
2023-04-27T18:06:43.893Z,97910.28
2023-04-27T18:09:10.435Z,97918.66
2023-04-27T18:11:36.940Z,97914.22
2023-04-27T18:14:04.278Z,97914.16
2023-04-27T18:16:30.823Z,97914.50
2023-04-27T18:18:57.289Z,97914.28
2023-04-27T18:21:26.613Z,97914.97
2023-04-27T18:23:53.174Z,97924.00
2023-04-27T18:26:20.117Z,97917.03
2023-04-27T18:28:46.611Z,97918.06
2023-04-27T18:31:14.478Z,97924.72
2023-04-27T18:33:41.372Z,97931.78
2023-04-27T18:36:08.346Z,97934.44
2023-04-27T18:38:34.822Z,97939.63
2023-04-27T18:41:01.288Z,97929.66
2023-04-27T18:43:27.928Z,97933.13
2023-04-27T18:45:54.475Z,97935.31
2023-04-27T18:48:21.348Z,97930.34
2023-04-27T18:50:49.335Z,97928.16
2023-04-27T18:53:16.025Z,97933.44
2023-04-27T18:55:42.553Z,97936.09
2023-04-27T18:58:09.160Z,97943.44
2023-04-27T19:00:37.549Z,97951.41
2023-04-27T19:03:04.712Z,97939.94
2023-04-27T19:05:31.789Z,97946.72
2023-04-27T19:07:58.269Z,97951.47
2023-04-27T19:10:24.808Z,97950.25
2023-04-27T19:12:51.489Z,97958.19
2023-04-27T19:15:17.956Z,97954.06
2023-04-27T19:17:44.568Z,97964.06
2023-04-27T19:20:11.760Z,97951.28
2023-04-27T19:22:38.262Z,97958.03
2023-04-27T19:25:04.995Z,97960.84
2023-04-27T19:27:31.644Z,97960.28
2023-04-27T19:29:58.656Z,97961.84
2023-04-27T19:32:26.814Z,97961.72
2023-04-27T19:34:54.851Z,97963.53
2023-04-27T19:37:21.873Z,97964.09
2023-04-27T19:39:48.368Z,97974.56
2023-04-27T19:42:15.396Z,97968.59
2023-04-27T19:44:42.078Z,97968.66
2023-04-27T19:47:10.777Z,97965.41
2023-04-27T19:49:37.687Z,97968.13
2023-04-27T19:52:05.135Z,97960.34
2023-04-27T19:54:31.681Z,97966.91
2023-04-27T19:56:58.322Z,97967.03
2023-04-27T19:59:26.007Z,97969.78
2023-04-27T20:01:52.549Z,97966.09
2023-04-27T20:04:21.034Z,97970.06
2023-04-27T20:06:48.734Z,97971.28
2023-04-27T20:09:15.328Z,97965.78
2023-04-27T20:11:41.843Z,97967.91
2023-04-27T20:14:08.306Z,97967.63
2023-04-27T20:16:34.816Z,97965.91
2023-04-27T20:19:01.339Z,97970.66
2023-04-27T20:21:28.054Z,97967.97
2023-04-27T20:23:54.689Z,97965.13
2023-04-27T20:26:21.343Z,97968.06
2023-04-27T20:28:48.556Z,97962.78
2023-04-27T20:31:15.507Z,97964.63
2023-04-27T20:33:42.194Z,97962.69
2023-04-27T20:36:16.581Z,97964.16
2023-04-27T20:38:44.192Z,97964.53
2023-04-27T20:41:12.238Z,97960.38
2023-04-27T20:43:39.829Z,97966.06
2023-04-27T20:46:07.495Z,97965.09
2023-04-27T20:48:34.275Z,97967.34
2023-04-27T20:51:00.759Z,97974.75
2023-04-27T20:53:27.305Z,97971.78
2023-04-27T20:55:53.750Z,97976.38
2023-04-27T20:58:20.406Z,97967.72
2023-04-27T21:00:47.008Z,97970.38
2023-04-27T21:03:14.171Z,97966.22
2023-04-27T21:05:41.397Z,97968.31
2023-04-27T21:08:07.925Z,97961.88
2023-04-27T21:10:35.434Z,97958.19
2023-04-27T21:13:03.957Z,97960.66
2023-04-27T21:15:30.600Z,97964.22
2023-04-27T21:17:57.220Z,97960.63
2023-04-27T21:20:23.745Z,97953.88
2023-04-27T21:22:50.282Z,97950.06
2023-04-27T21:25:16.753Z,97952.22
2023-04-27T21:27:43.213Z,97960.97
2023-04-27T21:30:10.357Z,97945.69
2023-04-27T21:32:37.014Z,97941.63
2023-04-27T21:35:03.650Z,97950.81
2023-04-27T21:37:30.439Z,97941.50
2023-04-27T21:39:56.919Z,97946.66
2023-04-27T21:42:23.383Z,97945.41
2023-04-27T21:44:49.896Z,97945.81
2023-04-27T21:47:16.382Z,97947.09
2023-04-27T21:49:42.838Z,97951.81
2023-04-27T21:52:10.420Z,97948.19
2023-04-27T21:54:36.966Z,97956.53
2023-04-27T21:57:04.099Z,97956.81
2023-04-27T21:59:30.975Z,97950.41
2023-04-27T22:01:59.356Z,97950.72
2023-04-27T22:04:26.161Z,97954.16
2023-04-27T22:06:52.927Z,97944.59
2023-04-27T22:09:19.513Z,97948.31
2023-04-27T22:11:46.562Z,97946.50
2023-04-27T22:14:13.208Z,97949.88
2023-04-27T22:16:39.821Z,97949.03
2023-04-27T22:19:06.849Z,97948.59
2023-04-27T22:21:33.485Z,97951.25
2023-04-27T22:23:59.986Z,97951.44
2023-04-27T22:26:26.445Z,97950.06
2023-04-27T22:28:53.283Z,97948.16
2023-04-27T22:31:19.785Z,97940.69
2023-04-27T22:33:46.288Z,97946.59
2023-04-27T22:36:13.350Z,97947.84
2023-04-27T22:38:39.790Z,97953.16
2023-04-27T22:41:06.246Z,97948.47
2023-04-27T22:43:32.730Z,97950.66
2023-04-27T22:45:59.205Z,97942.31
2023-04-27T22:48:25.910Z,97943.38
2023-04-27T22:50:52.376Z,97935.78
2023-04-27T22:53:18.824Z,97940.66
2023-04-27T22:55:45.311Z,97929.56
2023-04-27T22:58:11.863Z,97930.06
2023-04-27T23:00:38.467Z,97929.97
2023-04-27T23:03:05.247Z,97931.19
2023-04-27T23:05:32.023Z,97938.13
2023-04-27T23:07:59.766Z,97936.22
2023-04-27T23:10:26.771Z,97932.75
2023-04-27T23:12:54.881Z,97922.88
2023-04-27T23:15:23.814Z,97925.06
2023-04-27T23:17:50.373Z,97923.03
2023-04-27T23:22:51.402Z,97924.13
2023-04-27T23:25:17.949Z,97923.56
2023-04-27T23:27:44.402Z,97920.09
2023-04-27T23:30:11.585Z,97916.78
2023-04-27T23:32:38.273Z,97923.31
2023-04-27T23:35:05.654Z,97914.00
2023-04-27T23:37:32.156Z,97919.53
2023-04-27T23:39:59.079Z,97917.19
2023-04-27T23:42:25.554Z,97913.16
2023-04-27T23:44:52.997Z,97930.53
2023-04-27T23:47:19.591Z,97929.28
2023-04-27T23:49:46.049Z,97924.00
2023-04-27T23:52:12.530Z,97912.19
2023-04-27T23:54:39.011Z,97913.16
2023-04-27T23:57:05.582Z,97917.88
2023-04-27T23:59:35.390Z,97909.69
